Meteo Giornale » Osservazioni meteo Italia » Perugia

ore: 01:50 - Osservazioni Meteo Perugia
Lat. 43° 5' N Lon. 12° 30' E Alt. 208 metri s.l.m.

molto_nuvoloso Europe/Rome

21 °C

Molto Nuvoloso

Temp. 24 Ore

21 °C

32 °C

Nord

5.5 Km/h

Dew point 12 °C

Umidità 56 %

Visibilità  10 Km

Il sole sorge alle ore 06:00

Il sole tramonta alle ore 20:32

Data e Ora Cielo e Fenomeni T °C DP °C Um. % Pres. hPa Vis. km Vento km/h
Oggi h: 01:50 molto_nuvoloso Molto Nuvoloso 21 12 56 1012 10 N 5.5
Oggi h: 01:20 poco_nuvoloso Poco Nuvoloso 21 11 52 1012 10 O/SO 11.1
Oggi h: 00:50 sereno Sereno 21 11 52 1012 10 O/SO 11.1
Oggi h: 00:20 sereno Sereno 21 11 52 1012 10 SO 13
Ieri h: 23:50 sereno Sereno 22 11 49 1012 10 SO 13
Ieri h: 23:20 sereno Sereno 22 10 46 1012 10 SO 13
Ieri h: 22:50 poco_nuvoloso Poco Nuvoloso 24 12 47 1011 10 O/SO 14.8
Ieri h: 22:20 sereno Sereno 24 16 60 1011 10 S/SO 18.5
Ieri h: 21:50 poco_nuvoloso Poco Nuvoloso 24 16 60 1011 10 SO 14.8
Ieri h: 21:20 sereno Sereno 25 15 53 1011 10 S/SO 11.1
Ieri h: 20:20 sereno Sereno 26 13 44 1010 10 SO 20.3
Ieri h: 19:50 sereno Sereno 27 12 39 1010 10 SO 24
Ieri h: 19:20 sereno Sereno 29 11 32 1009 10 SO 29.6
Ieri h: 18:50 sereno Sereno 29 11 32 1009 10 SO 35.2
Ieri h: 18:20 sereno Sereno 30 11 30 1009 10 S/SO 33.3
Ieri h: 17:50 sereno Sereno 30 11 30 1009 10 SO 37
Ieri h: 17:20 sereno Sereno 32 11 27 1009 10 S/SO 31.5
Ieri h: 16:50 sereno Sereno 31 11 29 1009 10 S/SO 40.7
Ieri h: 15:50 sereno Sereno 31 12 31 1009 10 SO 38.8
Ieri h: 15:20 sereno Sereno 31 13 33 1008 10 SO 40.7
Ieri h: 14:50 sereno Sereno 31 13 33 1008 10 S/SO 40.7
Ieri h: 14:20 poco_nuvoloso Poco Nuvoloso 32 14 33 1008 10 S/SO 40.7
Ieri h: 13:50 sereno Sereno 32 16 38 1008 10 S/SO 38.8
Ieri h: 13:20 sereno Sereno 32 16 38 1008 10 S/SO 35.2
Ieri h: 12:50 poco_nuvoloso Poco Nuvoloso 32 16 38 1008 10 SO 38.8
Ieri h: 12:20 poco_nuvoloso Poco Nuvoloso 32 17 40 1008 10 SO 38.8
Ieri h: 11:50 poco_nuvoloso Poco Nuvoloso 31 18 45 1008 10 SO 29.6
Ieri h: 11:20 sereno Sereno 30 18 48 1008 10 S/SO 37
Ieri h: 10:50 sereno Sereno 29 18 51 1008 10 S/SO 37
Ieri h: 10:20 sereno Sereno 28 19 58 1008 10 S/SO 35.2
Ieri h: 09:50 sereno Sereno 28 19 58 1008 10 S/SO 27.8
Ieri h: 09:20 sereno Sereno 24 21 83 1008 10 S/SE 20.3
Ieri h: 08:50 sereno Sereno 24 21 83 1008 10 S/SE 16.7
Ieri h: 08:20 poco_nuvoloso Poco Nuvoloso 24 21 83 1008 10 S/SO 14.8
Ieri h: 07:50 nuvoloso_temporali Temporale con Pioggia Debole 25 21 78 1009 10 S/SO 33.3
Ieri h: 07:20 poco_nuvoloso Poco Nuvoloso 27 20 65 1007 10 S 11.1
Ieri h: 06:50 nuvoloso Nuvoloso 26 20 69 1007 10 S/SE 11.1
Ieri h: 06:20 molto_nuvoloso Molto Nuvoloso 26 20 69 1008 10 SE 11.1
Ieri h: 05:50 molto_nuvoloso Molto Nuvoloso 25 18 65 1008 10 N 5.5
Ieri h: 05:20 molto_nuvoloso Molto Nuvoloso 24 18 69 1009 10 N 5.5
Ieri h: 04:50 nuvoloso Nuvoloso 24 18 69 1009 10 N 1.8
Ieri h: 04:20 poco_nuvoloso Poco Nuvoloso 24 18 69 1009 10 N 5.5
Ieri h: 03:50 sereno Sereno 25 18 65 1009 10 SO 9.3
Ieri h: 03:20 sereno Sereno 26 17 57 1009 10 S/SO 11.1
Ieri h: 02:50 sereno Sereno 27 17 54 1009 10 S 13